createdAt,value
2016-11-21T00:00:30.456Z,980.7
2016-11-21T00:01:30.489Z,980.6
2016-11-21T00:02:30.514Z,980.75
2016-11-21T00:03:30.541Z,980.71
2016-11-21T00:04:30.574Z,980.71
2016-11-21T00:05:30.599Z,980.73
2016-11-21T00:06:30.623Z,980.73
2016-11-21T00:07:30.652Z,980.74
2016-11-21T00:08:30.684Z,980.71
2016-11-21T00:09:30.713Z,980.69
2016-11-21T00:10:30.738Z,980.68
2016-11-21T00:11:30.767Z,980.69
2016-11-21T00:12:30.800Z,980.67
2016-11-21T00:13:30.828Z,980.67
2016-11-21T00:14:30.852Z,980.71
2016-11-21T00:15:30.877Z,980.67
2016-11-21T00:16:30.910Z,980.7
2016-11-21T00:17:30.938Z,980.72
2016-11-21T00:18:30.963Z,980.79
2016-11-21T00:19:30.987Z,980.73
2016-11-21T00:20:31.020Z,980.73
2016-11-21T00:21:31.058Z,980.68
2016-11-21T00:22:31.079Z,980.71
2016-11-21T00:23:31.106Z,980.71
2016-11-21T00:24:31.138Z,980.65
2016-11-21T00:25:31.177Z,980.67
2016-11-21T00:26:31.198Z,980.68
2016-11-21T00:27:31.217Z,980.67
2016-11-21T00:28:31.244Z,980.68
2016-11-21T00:29:31.276Z,980.71
2016-11-21T00:30:31.313Z,980.74
2016-11-21T00:31:31.333Z,980.69
2016-11-21T00:32:31.357Z,980.71
2016-11-21T00:33:31.387Z,980.71
2016-11-21T00:34:31.414Z,980.69
2016-11-21T00:35:31.448Z,980.68
2016-11-21T00:36:31.476Z,980.71
2016-11-21T00:37:31.505Z,980.74
2016-11-21T00:38:31.534Z,980.75
2016-11-21T00:39:31.558Z,980.79
2016-11-21T00:40:31.587Z,980.82
2016-11-21T00:41:31.612Z,980.93
2016-11-21T00:42:31.645Z,980.87
2016-11-21T00:43:31.674Z,980.9
2016-11-21T00:44:31.702Z,980.92
2016-11-21T00:45:31.732Z,980.89
2016-11-21T00:46:31.760Z,980.98
2016-11-21T00:47:31.778Z,980.91
2016-11-21T00:48:31.813Z,981.08
2016-11-21T00:49:31.837Z,981.01
2016-11-21T00:50:31.866Z,981.07
2016-11-21T00:51:31.899Z,981.05
2016-11-21T00:52:31.926Z,981.04
2016-11-21T00:53:31.948Z,981.06
2016-11-21T00:54:31.986Z,981.01
2016-11-21T00:55:32.014Z,981.06
2016-11-21T00:56:32.038Z,981.06
2016-11-21T00:57:32.067Z,980.99
2016-11-21T00:58:32.092Z,981.06
2016-11-21T00:59:32.125Z,981.09
2016-11-21T01:00:32.155Z,981.18
2016-11-21T01:01:32.179Z,981.14
2016-11-21T01:02:32.207Z,981.19
2016-11-21T01:03:32.240Z,981.18
2016-11-21T01:04:32.268Z,981.21
2016-11-21T01:05:32.295Z,981.18
2016-11-21T01:06:32.323Z,981.2
2016-11-21T01:07:32.347Z,981.21
2016-11-21T01:08:32.379Z,981.19
2016-11-21T01:09:32.406Z,981.26
2016-11-21T01:10:32.437Z,981.22
2016-11-21T01:11:32.466Z,981.28
2016-11-21T01:12:32.495Z,981.27
2016-11-21T01:13:32.520Z,981.26
2016-11-21T01:14:32.546Z,981.32
2016-11-21T01:15:32.573Z,981.29
2016-11-21T01:16:32.606Z,981.37
2016-11-21T01:17:32.630Z,981.35
2016-11-21T01:18:32.659Z,981.31
2016-11-21T01:19:32.688Z,981.37
2016-11-21T01:20:32.718Z,981.35
2016-11-21T01:21:32.748Z,981.36
2016-11-21T01:22:32.770Z,981.44
2016-11-21T01:23:32.799Z,981.47
2016-11-21T01:24:32.824Z,981.46
2016-11-21T01:25:32.861Z,981.43
2016-11-21T01:26:32.888Z,981.45
2016-11-21T01:27:32.914Z,981.57
2016-11-21T01:28:32.943Z,981.46
2016-11-21T01:29:32.972Z,981.4
2016-11-21T01:30:33.000Z,981.46
2016-11-21T01:31:33.020Z,981.45
2016-11-21T01:32:33.054Z,981.53
2016-11-21T01:33:33.082Z,981.5
2016-11-21T01:34:33.111Z,981.58
2016-11-21T01:35:33.142Z,981.47
2016-11-21T01:36:33.165Z,981.46
2016-11-21T01:37:33.193Z,981.42
2016-11-21T01:38:33.227Z,981.52
2016-11-21T01:39:33.251Z,981.44
2016-11-21T01:40:33.280Z,981.48
2016-11-21T01:41:33.313Z,981.44
2016-11-21T01:42:33.342Z,981.43
2016-11-21T01:43:33.368Z,981.44
2016-11-21T01:44:33.391Z,981.39
2016-11-21T01:45:33.419Z,981.41
2016-11-21T01:46:33.452Z,981.4
2016-11-21T01:47:33.481Z,981.33
2016-11-21T01:48:33.506Z,981.35
2016-11-21T01:49:33.539Z,981.36
2016-11-21T01:50:33.567Z,981.32
2016-11-21T01:51:33.588Z,981.33
2016-11-21T01:52:33.621Z,981.31
2016-11-21T01:53:33.647Z,981.28
2016-11-21T01:54:33.678Z,981.24
2016-11-21T01:55:33.707Z,981.18
2016-11-21T01:56:33.736Z,981.22
2016-11-21T01:57:33.760Z,981.2
2016-11-21T01:58:33.789Z,981.25
2016-11-21T01:59:33.814Z,981.23
2016-11-21T02:00:33.846Z,981.27
2016-11-21T02:01:33.871Z,981.25
2016-11-21T02:02:33.905Z,981.2
2016-11-21T02:03:33.933Z,981.15
2016-11-21T02:04:33.959Z,981.14
2016-11-21T02:05:33.985Z,981.07
2016-11-21T02:06:34.015Z,981.03
2016-11-21T02:07:34.045Z,981.06
2016-11-21T02:08:34.069Z,981.1
2016-11-21T02:09:34.102Z,981.14
2016-11-21T02:10:34.130Z,981.08
2016-11-21T02:11:34.152Z,981.03
2016-11-21T02:12:34.181Z,981.02
2016-11-21T02:13:34.205Z,981.01
2016-11-21T02:14:34.241Z,981.07
2016-11-21T02:15:34.267Z,980.99
2016-11-21T02:16:34.298Z,980.95
2016-11-21T02:17:34.327Z,980.99
2016-11-21T02:18:34.348Z,980.93
2016-11-21T02:19:34.381Z,980.92
2016-11-21T02:20:34.408Z,981
2016-11-21T02:21:34.437Z,981
2016-11-21T02:22:34.468Z,980.96
2016-11-21T02:23:34.492Z,981.01
2016-11-21T02:24:34.516Z,980.97
2016-11-21T02:25:34.550Z,980.89
2016-11-21T02:26:34.578Z,980.9
2016-11-21T02:27:34.603Z,980.92
2016-11-21T02:28:34.635Z,980.8
2016-11-21T02:29:34.664Z,980.82
2016-11-21T02:30:34.689Z,980.84
2016-11-21T02:31:34.721Z,980.88
2016-11-21T02:32:34.750Z,980.88
2016-11-21T02:33:34.771Z,980.82
2016-11-21T02:34:34.799Z,980.88
2016-11-21T02:35:34.829Z,980.86
2016-11-21T02:36:34.859Z,980.83
2016-11-21T02:37:34.890Z,980.81
2016-11-21T02:38:34.915Z,980.84
2016-11-21T02:39:34.944Z,980.78
2016-11-21T02:40:34.968Z,980.78
2016-11-21T02:41:34.997Z,980.84
2016-11-21T02:42:35.026Z,980.8
2016-11-21T02:43:35.058Z,980.74
2016-11-21T02:44:35.087Z,980.76
2016-11-21T02:45:35.112Z,980.75
2016-11-21T02:46:35.141Z,980.69
2016-11-21T02:47:35.166Z,980.69
2016-11-21T02:48:35.198Z,980.71
2016-11-21T02:49:35.222Z,980.67
2016-11-21T02:50:35.252Z,980.64
2016-11-21T02:51:35.280Z,980.65
2016-11-21T02:52:35.313Z,980.63
2016-11-21T02:53:35.339Z,980.66
2016-11-21T02:54:35.364Z,980.63
2016-11-21T02:55:35.394Z,980.62
2016-11-21T02:56:35.420Z,980.59
2016-11-21T02:57:35.453Z,980.59
2016-11-21T02:58:35.477Z,980.59
2016-11-21T02:59:35.510Z,980.61
2016-11-21T03:00:35.534Z,980.61
2016-11-21T03:01:35.564Z,980.57
2016-11-21T03:02:35.592Z,980.52
2016-11-21T03:03:35.621Z,980.55
2016-11-21T03:04:35.645Z,980.62
2016-11-21T03:05:35.674Z,980.64
2016-11-21T03:06:35.704Z,980.56
2016-11-21T03:07:35.736Z,980.53
2016-11-21T03:08:35.761Z,980.54
2016-11-21T03:09:35.791Z,980.51
2016-11-21T03:10:35.814Z,980.5
2016-11-21T03:11:35.848Z,980.45
2016-11-21T03:12:35.877Z,980.48
2016-11-21T03:13:35.899Z,980.46
2016-11-21T03:14:35.924Z,980.46
2016-11-21T03:15:35.953Z,980.45
2016-11-21T03:16:35.987Z,980.43
2016-11-21T03:17:36.015Z,980.4
2016-11-21T03:18:36.039Z,980.35
2016-11-21T03:19:36.064Z,980.35
2016-11-21T03:20:36.092Z,980.41
2016-11-21T03:21:36.126Z,980.38
2016-11-21T03:22:36.150Z,980.41
2016-11-21T03:23:36.183Z,980.4
2016-11-21T03:24:36.203Z,980.38
2016-11-21T03:25:36.240Z,980.36
2016-11-21T03:26:36.261Z,980.35
2016-11-21T03:27:36.295Z,980.36
2016-11-21T03:28:36.322Z,980.4
2016-11-21T03:29:36.343Z,980.47
2016-11-21T03:30:36.376Z,980.46
2016-11-21T03:31:36.404Z,980.44
2016-11-21T03:32:36.437Z,980.47
2016-11-21T03:33:36.458Z,980.45
2016-11-21T03:34:36.491Z,980.45
2016-11-21T03:35:36.520Z,980.45
2016-11-21T03:36:36.548Z,980.46
2016-11-21T03:37:36.577Z,980.48
2016-11-21T03:38:36.598Z,980.43
2016-11-21T03:39:36.630Z,980.43
2016-11-21T03:40:36.659Z,980.46
2016-11-21T03:41:36.684Z,980.48
2016-11-21T03:42:36.716Z,980.43
2016-11-21T03:43:36.741Z,980.41
2016-11-21T03:44:36.770Z,980.43
2016-11-21T03:45:36.791Z,980.4
2016-11-21T03:46:36.823Z,980.39
2016-11-21T03:47:36.852Z,980.41
2016-11-21T03:48:36.886Z,980.41
2016-11-21T03:49:36.915Z,980.37
2016-11-21T03:50:36.938Z,980.33
2016-11-21T03:51:36.963Z,980.28
2016-11-21T03:52:36.993Z,980.29
2016-11-21T03:53:37.020Z,980.27
2016-11-21T03:54:37.049Z,980.26
2016-11-21T03:55:37.078Z,980.24
2016-11-21T03:56:37.103Z,980.26
2016-11-21T03:57:37.135Z,980.21
2016-11-21T03:58:37.165Z,980.22
2016-11-21T03:59:37.189Z,980.25
2016-11-21T04:00:37.219Z,980.23
2016-11-21T04:01:37.246Z,980.24
2016-11-21T04:02:37.275Z,980.28
2016-11-21T04:03:37.300Z,980.26
2016-11-21T04:04:37.332Z,980.26
2016-11-21T04:05:37.357Z,980.27
2016-11-21T04:06:37.390Z,980.26
2016-11-21T04:07:37.415Z,980.27
2016-11-21T04:08:37.444Z,980.28
2016-11-21T04:09:37.472Z,980.32
2016-11-21T04:10:37.496Z,980.32
2016-11-21T04:11:37.526Z,980.3
2016-11-21T04:12:37.550Z,980.37
2016-11-21T04:13:37.586Z,980.33
2016-11-21T04:14:37.608Z,980.34
2016-11-21T04:15:37.640Z,980.32
2016-11-21T04:16:37.666Z,980.34
2016-11-21T04:17:37.693Z,980.33
2016-11-21T04:18:37.726Z,980.34
2016-11-21T04:19:37.755Z,980.33
2016-11-21T04:20:37.775Z,980.32
2016-11-21T04:21:37.808Z,980.3
2016-11-21T04:22:37.834Z,980.28
2016-11-21T04:23:37.862Z,980.29
2016-11-21T04:24:37.890Z,980.24
2016-11-21T04:25:37.923Z,980.21
2016-11-21T04:26:37.947Z,980.24
2016-11-21T04:27:37.976Z,980.21
2016-11-21T04:28:38.001Z,980.27
2016-11-21T04:29:38.030Z,980.31
2016-11-21T04:30:38.063Z,980.24
2016-11-21T04:31:38.087Z,980.31
2016-11-21T04:32:38.112Z,980.26
2016-11-21T04:33:38.145Z,980.27
2016-11-21T04:34:38.170Z,980.27
2016-11-21T04:35:38.198Z,980.3
2016-11-21T04:36:38.227Z,980.25
2016-11-21T04:37:38.251Z,980.28
2016-11-21T04:38:38.280Z,980.27
2016-11-21T04:39:38.313Z,980.25
2016-11-21T04:40:38.338Z,980.22
2016-11-21T04:41:38.368Z,980.18
2016-11-21T04:42:38.391Z,980.19
2016-11-21T04:43:38.424Z,980.26
2016-11-21T04:44:38.448Z,980.17
2016-11-21T04:45:38.477Z,980.21
2016-11-21T04:46:38.510Z,980.24
2016-11-21T04:47:38.530Z,980.17
2016-11-21T04:48:38.559Z,980.07
2016-11-21T04:49:38.596Z,980.08
2016-11-21T04:50:38.620Z,980.2
2016-11-21T04:51:38.646Z,980.22
2016-11-21T04:52:38.675Z,980.32
2016-11-21T04:53:38.703Z,980.4
2016-11-21T04:54:38.731Z,980.37
2016-11-21T04:55:38.760Z,980.25
2016-11-21T04:56:38.785Z,980.2
2016-11-21T04:57:38.809Z,980.11
2016-11-21T04:58:38.838Z,980.1
2016-11-21T04:59:38.868Z,980.11
2016-11-21T05:00:38.900Z,980.17
2016-11-21T05:01:38.931Z,980.12
2016-11-21T05:02:38.952Z,980.07
2016-11-21T05:03:38.978Z,979.97
2016-11-21T05:04:39.011Z,979.97
2016-11-21T05:05:39.040Z,980.02
2016-11-21T05:06:39.064Z,980.05
2016-11-21T05:07:39.095Z,980.05
2016-11-21T05:08:39.121Z,980.06
2016-11-21T05:09:39.151Z,980.04
2016-11-21T05:10:39.175Z,980.04
2016-11-21T05:11:39.203Z,980.07
2016-11-21T05:12:39.237Z,980.09
2016-11-21T05:13:39.252Z,980.06
2016-11-21T05:14:39.290Z,979.95
2016-11-21T05:15:39.314Z,979.99
2016-11-21T05:16:39.347Z,979.92
2016-11-21T05:17:39.376Z,980.01
2016-11-21T05:18:39.405Z,980.03
2016-11-21T05:19:39.425Z,980.05
2016-11-21T05:20:39.455Z,980.1
2016-11-21T05:21:39.482Z,980.1
2016-11-21T05:22:39.512Z,980.04
2016-11-21T05:23:39.540Z,980.13
2016-11-21T05:24:39.568Z,980.08
2016-11-21T05:25:39.598Z,980.06
2016-11-21T05:26:39.627Z,980.02
2016-11-21T05:27:39.656Z,979.95
2016-11-21T05:28:39.675Z,979.95
2016-11-21T05:29:39.708Z,979.98
2016-11-21T05:30:39.737Z,979.9
2016-11-21T05:31:39.766Z,979.88
2016-11-21T05:32:39.801Z,979.79
2016-11-21T05:33:39.819Z,979.77
2016-11-21T05:34:39.843Z,979.71
2016-11-21T05:35:39.876Z,979.88
2016-11-21T05:36:39.901Z,979.97
2016-11-21T05:37:39.934Z,979.98
2016-11-21T05:38:39.950Z,979.95
2016-11-21T05:39:39.988Z,979.89
2016-11-21T05:40:40.016Z,979.88
2016-11-21T05:41:40.041Z,979.86
2016-11-21T05:42:40.073Z,979.78
2016-11-21T05:43:40.103Z,979.8
2016-11-21T05:44:40.122Z,979.85
2016-11-21T05:45:40.156Z,979.89
2016-11-21T05:46:40.180Z,979.87
2016-11-21T05:47:40.209Z,979.87
2016-11-21T05:48:40.249Z,979.96
2016-11-21T05:49:40.262Z,979.99
2016-11-21T05:50:40.295Z,980.02
2016-11-21T05:51:40.315Z,980.02
2016-11-21T05:52:40.349Z,980.03
2016-11-21T05:53:40.377Z,980.08
2016-11-21T05:54:40.402Z,980.05
2016-11-21T05:55:40.433Z,980.1
2016-11-21T05:56:40.459Z,980.13
2016-11-21T05:57:40.500Z,980.08
2016-11-21T05:58:40.521Z,980.08
2016-11-21T05:59:40.541Z,980.06
2016-11-21T06:00:40.570Z,980.04
2016-11-21T06:01:40.598Z,980.04
2016-11-21T06:02:40.627Z,980.02
2016-11-21T06:03:40.660Z,979.99
2016-11-21T06:04:40.681Z,979.97
2016-11-21T06:05:40.714Z,979.96
2016-11-21T06:06:40.734Z,979.99
2016-11-21T06:07:40.767Z,979.94
2016-11-21T06:08:40.797Z,980.01
2016-11-21T06:09:40.823Z,980.05
2016-11-21T06:10:40.853Z,980.01
2016-11-21T06:11:40.878Z,980.01
2016-11-21T06:12:40.910Z,979.96
2016-11-21T06:13:40.952Z,979.91
2016-11-21T06:14:40.969Z,979.91
2016-11-21T06:15:40.997Z,979.88
2016-11-21T06:16:41.021Z,979.87
2016-11-21T06:17:41.047Z,979.83
2016-11-21T06:18:41.079Z,979.77
2016-11-21T06:19:41.108Z,979.79
2016-11-21T06:20:41.132Z,979.79
2016-11-21T06:21:41.160Z,979.76
2016-11-21T06:22:41.190Z,979.8
2016-11-21T06:23:41.215Z,979.8
2016-11-21T06:24:41.248Z,979.81
2016-11-21T06:25:41.276Z,979.82
2016-11-21T06:26:41.301Z,979.73
2016-11-21T06:27:41.325Z,979.69
2016-11-21T06:28:41.360Z,979.71
2016-11-21T06:29:41.387Z,979.73
2016-11-21T06:30:41.419Z,979.74
2016-11-21T06:31:41.441Z,979.74
2016-11-21T06:32:41.474Z,979.72
2016-11-21T06:33:41.502Z,979.67
2016-11-21T06:34:41.526Z,979.67
2016-11-21T06:35:41.551Z,979.68
2016-11-21T06:36:41.588Z,979.71
2016-11-21T06:37:41.614Z,979.73
2016-11-21T06:38:41.642Z,979.67
2016-11-21T06:39:41.666Z,979.61
2016-11-21T06:40:41.696Z,979.57
2016-11-21T06:41:41.724Z,979.63
2016-11-21T06:42:41.755Z,979.68
2016-11-21T06:43:41.785Z,979.66
2016-11-21T06:44:41.813Z,979.68
2016-11-21T06:45:41.843Z,979.69
2016-11-21T06:46:41.868Z,979.71
2016-11-21T06:47:41.896Z,979.73
2016-11-21T06:48:41.921Z,979.8
2016-11-21T06:49:41.951Z,979.8
2016-11-21T06:50:41.979Z,979.81
2016-11-21T06:51:42.007Z,979.84
2016-11-21T06:52:42.036Z,979.88
2016-11-21T06:53:42.070Z,979.85
2016-11-21T06:54:42.090Z,979.85
2016-11-21T06:55:42.119Z,979.84
2016-11-21T06:56:42.156Z,979.89
2016-11-21T06:57:42.176Z,979.93
2016-11-21T06:58:42.204Z,979.89
2016-11-21T06:59:42.240Z,979.88
2016-11-21T07:00:42.260Z,979.87
2016-11-21T07:01:42.291Z,979.9
2016-11-21T07:02:42.323Z,979.85
2016-11-21T07:03:42.349Z,979.86
2016-11-21T07:04:42.381Z,979.87
2016-11-21T07:05:42.406Z,979.85
2016-11-21T07:06:42.430Z,979.8
2016-11-21T07:07:42.460Z,979.79
2016-11-21T07:08:42.490Z,979.81
2016-11-21T07:09:42.516Z,979.8
2016-11-21T07:10:42.549Z,979.81
2016-11-21T07:11:42.578Z,979.81
2016-11-21T07:12:42.602Z,979.74
2016-11-21T07:13:42.631Z,979.83
2016-11-21T07:14:42.664Z,979.89
2016-11-21T07:15:42.689Z,979.91
2016-11-21T07:16:42.721Z,979.9
2016-11-21T07:17:42.746Z,979.87
2016-11-21T07:18:42.774Z,979.9
2016-11-21T07:19:42.807Z,979.91
2016-11-21T07:20:42.832Z,979.94
2016-11-21T07:21:42.862Z,979.94
2016-11-21T07:22:42.890Z,979.84
2016-11-21T07:23:42.918Z,979.81
2016-11-21T07:24:42.943Z,979.87
2016-11-21T07:25:42.976Z,980.02
2016-11-21T07:26:43.004Z,980.13
2016-11-21T07:27:43.033Z,980.02
2016-11-21T07:28:43.062Z,979.93
2016-11-21T07:29:43.087Z,979.94
2016-11-21T07:30:43.115Z,979.92
2016-11-21T07:31:43.140Z,979.91
2016-11-21T07:32:43.194Z,980
2016-11-21T07:33:43.201Z,980.06
2016-11-21T07:34:43.226Z,980.01
2016-11-21T07:35:43.259Z,979.89
2016-11-21T07:36:43.288Z,979.79
2016-11-21T07:37:43.317Z,979.72
2016-11-21T07:38:43.337Z,979.7
2016-11-21T07:39:43.370Z,979.66
2016-11-21T07:40:43.407Z,979.73
2016-11-21T07:41:43.427Z,979.86
2016-11-21T07:42:43.459Z,980.03
2016-11-21T07:43:43.485Z,980.09
2016-11-21T07:44:43.518Z,980.04
2016-11-21T07:45:43.543Z,980.01
2016-11-21T07:46:43.567Z,980.01
2016-11-21T07:47:43.595Z,979.99
2016-11-21T07:48:43.620Z,980.01
2016-11-21T07:49:43.658Z,980.03
2016-11-21T07:50:43.686Z,980.09
2016-11-21T07:51:43.716Z,980.14
2016-11-21T07:52:43.740Z,980.27
2016-11-21T07:53:43.772Z,980.47
2016-11-21T07:54:43.801Z,980.51
2016-11-21T07:55:43.825Z,980.45
2016-11-21T07:56:43.856Z,980.35
2016-11-21T07:57:43.883Z,980.36
2016-11-21T07:58:43.912Z,980.29
2016-11-21T07:59:43.964Z,980.28
2016-11-21T08:00:43.970Z,980.32
2016-11-21T08:01:43.998Z,980.33
2016-11-21T08:02:44.023Z,980.4
2016-11-21T08:03:44.055Z,980.5
2016-11-21T08:04:44.084Z,980.42
2016-11-21T08:05:44.109Z,980.27
2016-11-21T08:06:44.137Z,980.22
2016-11-21T08:07:44.166Z,980.2
2016-11-21T08:08:44.199Z,980.29
2016-11-21T08:09:44.219Z,980.54
2016-11-21T08:10:44.253Z,980.67
2016-11-21T08:11:44.277Z,980.6
2016-11-21T08:12:44.306Z,980.59
2016-11-21T08:13:44.339Z,980.55
2016-11-21T08:14:44.363Z,980.42
2016-11-21T08:15:44.397Z,980.37
2016-11-21T08:16:44.421Z,980.61
2016-11-21T08:17:44.454Z,980.61
2016-11-21T08:18:44.483Z,980.54
2016-11-21T08:19:44.508Z,980.39
2016-11-21T08:20:44.536Z,980.32
2016-11-21T08:21:44.565Z,980.36
2016-11-21T08:22:44.594Z,980.41
2016-11-21T08:23:44.623Z,980.43
2016-11-21T08:24:44.647Z,980.35
2016-11-21T08:25:44.676Z,980.33
2016-11-21T08:26:44.704Z,980.32
2016-11-21T08:27:44.734Z,980.26
2016-11-21T08:28:44.762Z,980.18
2016-11-21T08:29:44.791Z,980.22
2016-11-21T08:30:44.820Z,980.17
2016-11-21T08:31:44.849Z,980.16
2016-11-21T08:32:44.876Z,980.2
2016-11-21T08:33:44.906Z,980.37
2016-11-21T08:34:44.931Z,980.3
2016-11-21T08:35:44.959Z,980.35
2016-11-21T08:36:44.988Z,980.42
2016-11-21T08:37:45.024Z,980.48
2016-11-21T08:38:45.050Z,980.62
2016-11-21T08:39:45.074Z,980.37
2016-11-21T08:40:45.101Z,980.28
2016-11-21T08:41:45.136Z,980.62
2016-11-21T08:42:45.160Z,980.69
2016-11-21T08:43:45.190Z,980.63
2016-11-21T08:44:45.219Z,980.57
2016-11-21T08:45:45.243Z,980.59
2016-11-21T08:46:45.272Z,980.56
2016-11-21T08:47:45.301Z,980.52
2016-11-21T08:48:45.333Z,980.63
2016-11-21T08:49:45.361Z,980.72
2016-11-21T08:50:45.386Z,980.79
2016-11-21T08:51:45.416Z,980.83
2016-11-21T08:52:45.448Z,980.92
2016-11-21T08:53:45.477Z,980.96
2016-11-21T08:54:45.504Z,980.99
2016-11-21T08:55:45.526Z,980.82
2016-11-21T08:56:45.555Z,980.76
2016-11-21T08:57:45.588Z,980.64
2016-11-21T08:58:45.613Z,980.45
2016-11-21T08:59:45.644Z,980.4
2016-11-21T09:00:45.674Z,980.66
2016-11-21T09:01:45.703Z,980.8
2016-11-21T09:02:45.728Z,980.73
2016-11-21T09:03:45.752Z,980.76
2016-11-21T09:04:45.785Z,980.69
2016-11-21T09:05:45.814Z,980.57
2016-11-21T09:06:45.842Z,980.54
2016-11-21T09:07:45.867Z,980.61
2016-11-21T09:08:45.900Z,980.59
2016-11-21T09:09:45.929Z,980.56
2016-11-21T09:10:45.954Z,980.57
2016-11-21T09:11:45.982Z,980.56
2016-11-21T09:12:46.012Z,980.68
2016-11-21T09:13:46.035Z,980.74
2016-11-21T09:14:46.064Z,980.71
2016-11-21T09:15:46.093Z,980.73
2016-11-21T09:16:46.121Z,980.81
2016-11-21T09:17:46.152Z,980.9
2016-11-21T09:18:46.179Z,980.95
2016-11-21T09:19:46.203Z,980.9
2016-11-21T09:20:46.236Z,980.82
2016-11-21T09:21:46.261Z,980.85
2016-11-21T09:22:46.293Z,980.72
2016-11-21T09:23:46.321Z,980.7
2016-11-21T09:24:46.347Z,980.65
2016-11-21T09:25:46.380Z,980.7
2016-11-21T09:26:46.408Z,980.75
2016-11-21T09:27:46.434Z,980.74
2016-11-21T09:28:46.463Z,980.72
2016-11-21T09:29:46.487Z,980.73
2016-11-21T09:30:46.516Z,980.66
2016-11-21T09:31:46.544Z,980.65
2016-11-21T09:32:46.577Z,980.61
2016-11-21T09:33:46.606Z,980.51
2016-11-21T09:34:46.622Z,980.5
2016-11-21T09:35:46.659Z,980.56
2016-11-21T09:36:46.683Z,980.54
2016-11-21T09:37:46.711Z,980.48
2016-11-21T09:38:46.740Z,980.46
2016-11-21T09:39:46.770Z,980.39
2016-11-21T09:40:46.795Z,980.36
2016-11-21T09:41:46.823Z,980.32
2016-11-21T09:42:46.847Z,980.29
2016-11-21T09:43:46.880Z,980.21
2016-11-21T09:44:46.914Z,980.26
2016-11-21T09:45:46.946Z,980.29
2016-11-21T09:46:46.967Z,980.28
2016-11-21T09:47:46.991Z,980.26
2016-11-21T09:48:47.024Z,980.27
2016-11-21T09:49:47.048Z,980.28
2016-11-21T09:50:47.077Z,980.31
2016-11-21T09:51:47.106Z,980.26
2016-11-21T09:52:47.135Z,980.2
2016-11-21T09:53:47.163Z,980.16
2016-11-21T09:54:47.205Z,980.08
2016-11-21T09:55:47.235Z,980.04
2016-11-21T09:56:47.245Z,980.07
2016-11-21T09:57:47.271Z,980.09
2016-11-21T09:58:47.299Z,980.05
2016-11-21T09:59:47.330Z,979.97
2016-11-21T10:00:47.360Z,979.88
2016-11-21T10:01:47.385Z,979.86
2016-11-21T10:02:47.409Z,979.86
2016-11-21T10:03:47.438Z,979.78
2016-11-21T10:04:47.471Z,979.75
2016-11-21T10:05:47.500Z,979.72
2016-11-21T10:06:47.525Z,979.73
2016-11-21T10:07:47.554Z,979.63
2016-11-21T10:08:47.578Z,979.63
2016-11-21T10:09:47.602Z,979.59
2016-11-21T10:10:47.635Z,979.53
2016-11-21T10:11:47.668Z,979.54
2016-11-21T10:12:47.692Z,979.52
2016-11-21T10:13:47.718Z,979.54
2016-11-21T10:14:47.747Z,979.55
2016-11-21T10:15:47.775Z,979.47
2016-11-21T10:16:47.809Z,979.45
2016-11-21T10:17:47.831Z,979.47
2016-11-21T10:18:47.865Z,979.45
2016-11-21T10:19:47.895Z,979.48
2016-11-21T10:20:47.919Z,979.49
2016-11-21T10:21:47.949Z,979.49
2016-11-21T10:22:47.976Z,979.46
2016-11-21T10:23:48.005Z,979.5
2016-11-21T10:24:48.030Z,979.45
2016-11-21T10:25:48.062Z,979.45
2016-11-21T10:26:48.091Z,979.48
2016-11-21T10:27:48.113Z,979.46
2016-11-21T10:28:48.144Z,979.44
2016-11-21T10:29:48.174Z,979.47
2016-11-21T10:30:48.197Z,979.46
2016-11-21T10:31:48.230Z,979.5
2016-11-21T10:32:48.259Z,979.49
2016-11-21T10:33:48.283Z,979.49
2016-11-21T10:34:48.312Z,979.54
2016-11-21T10:35:48.341Z,979.44
2016-11-21T10:36:48.366Z,979.43
2016-11-21T10:37:48.395Z,979.5
2016-11-21T10:38:48.428Z,979.57
2016-11-21T10:39:48.456Z,979.61
2016-11-21T10:40:48.485Z,979.64
2016-11-21T10:41:48.509Z,979.59
2016-11-21T10:42:48.539Z,979.47
2016-11-21T10:43:48.567Z,979.47
2016-11-21T10:44:48.595Z,979.53
2016-11-21T10:45:48.620Z,979.56
2016-11-21T10:46:48.653Z,979.56
2016-11-21T10:47:48.678Z,979.59
2016-11-21T10:48:48.707Z,979.53
2016-11-21T10:49:48.731Z,979.56
2016-11-21T10:50:48.764Z,979.6
2016-11-21T10:51:48.792Z,979.56
2016-11-21T10:52:48.817Z,979.56
2016-11-21T10:53:48.845Z,979.59
2016-11-21T10:54:48.879Z,979.61
2016-11-21T10:55:48.904Z,979.58
2016-11-21T10:56:48.929Z,979.66
2016-11-21T10:57:48.957Z,979.72
2016-11-21T10:58:48.986Z,979.68
2016-11-21T10:59:49.021Z,979.58
2016-11-21T11:00:49.043Z,979.55
2016-11-21T11:01:49.076Z,979.53
2016-11-21T11:02:49.104Z,979.51
2016-11-21T11:03:49.129Z,979.48
2016-11-21T11:04:49.153Z,979.5
2016-11-21T11:05:49.188Z,979.62
2016-11-21T11:06:49.215Z,979.59
2016-11-21T11:07:49.245Z,979.54
2016-11-21T11:08:49.268Z,979.56
2016-11-21T11:09:49.297Z,979.53
2016-11-21T11:10:49.320Z,979.61
2016-11-21T11:11:49.351Z,979.54
2016-11-21T11:12:49.379Z,979.47
2016-11-21T11:13:49.413Z,979.48
2016-11-21T11:14:49.437Z,979.54
2016-11-21T11:15:49.469Z,979.57
2016-11-21T11:16:49.503Z,979.52
2016-11-21T11:17:49.523Z,979.51
2016-11-21T11:18:49.552Z,979.68
2016-11-21T11:19:49.581Z,979.66
2016-11-21T11:20:49.605Z,979.67
2016-11-21T11:21:49.634Z,979.77
2016-11-21T11:22:49.663Z,979.74
2016-11-21T11:23:49.692Z,979.71
2016-11-21T11:24:49.716Z,979.74
2016-11-21T11:25:49.748Z,979.78
2016-11-21T11:26:49.778Z,979.72
2016-11-21T11:27:49.803Z,979.69
2016-11-21T11:28:49.828Z,979.68
2016-11-21T11:29:49.860Z,979.75
2016-11-21T11:30:49.885Z,979.76
2016-11-21T11:31:49.915Z,979.78
2016-11-21T11:32:49.942Z,979.78
2016-11-21T11:33:49.974Z,979.84
2016-11-21T11:34:50.004Z,979.76
2016-11-21T11:35:50.028Z,979.72
2016-11-21T11:36:50.053Z,979.64
2016-11-21T11:37:50.086Z,979.63
2016-11-21T11:38:50.114Z,979.6
2016-11-21T11:39:50.139Z,979.62
2016-11-21T11:40:50.168Z,979.67
2016-11-21T11:41:50.197Z,979.72
2016-11-21T11:42:50.225Z,979.69
2016-11-21T11:43:50.250Z,979.63
2016-11-21T11:44:50.284Z,979.67
2016-11-21T11:45:50.311Z,979.73
2016-11-21T11:46:50.340Z,979.71
2016-11-21T11:47:50.365Z,979.7
2016-11-21T11:48:50.389Z,979.68
2016-11-21T11:49:50.423Z,979.68
2016-11-21T11:50:50.447Z,979.64
2016-11-21T11:51:50.472Z,979.7
2016-11-21T11:52:50.509Z,979.67
2016-11-21T11:53:50.533Z,979.64
2016-11-21T11:54:50.563Z,979.72
2016-11-21T11:55:50.587Z,979.77
2016-11-21T11:56:50.616Z,979.78
2016-11-21T11:57:50.644Z,979.77
2016-11-21T11:58:50.673Z,979.72
2016-11-21T11:59:50.702Z,979.73
2016-11-21T12:00:50.726Z,979.68
2016-11-21T12:01:50.760Z,979.69
2016-11-21T12:02:50.784Z,979.69
2016-11-21T12:03:50.818Z,979.65
2016-11-21T12:04:50.844Z,979.63
2016-11-21T12:05:50.870Z,979.64
2016-11-21T12:06:50.899Z,979.69
2016-11-21T12:07:50.929Z,979.74
2016-11-21T12:08:50.952Z,979.75
2016-11-21T12:09:50.983Z,979.76
2016-11-21T12:10:51.011Z,979.7
2016-11-21T12:11:51.043Z,979.72
2016-11-21T12:12:51.067Z,979.67
2016-11-21T12:13:51.093Z,979.69
2016-11-21T12:14:51.124Z,979.65
2016-11-21T12:15:51.150Z,979.63
2016-11-21T12:16:51.178Z,979.58
2016-11-21T12:17:51.208Z,979.57
2016-11-21T12:18:51.235Z,979.52
2016-11-21T12:19:51.260Z,979.55
2016-11-21T12:20:51.289Z,979.45
2016-11-21T12:21:51.325Z,979.42
2016-11-21T12:22:51.350Z,979.45
2016-11-21T12:23:51.374Z,979.62
2016-11-21T12:24:51.415Z,979.55
2016-11-21T12:25:51.434Z,979.57
2016-11-21T12:26:51.462Z,979.61
2016-11-21T12:27:51.486Z,979.63
2016-11-21T12:28:51.519Z,979.64
2016-11-21T12:29:51.544Z,979.61
2016-11-21T12:30:51.572Z,979.6